Time;durP1;ratioP1;P1;durP2;ratioP2;P2;SDS_P1;SDS_P2;PMS_P1;PMS_P2;Temp;Humidity;BMP_temperature;BMP_pressure;BME280_temperature;BME280_humidity;BME280_pressure;Samples;Min_cycle;Max_cycle;Signal;HPM_P1;HPM_P2
2021/12/15 00:00:24;;;;;;;9.70;7.88;;;13.50;69.70;;;;;;1081094;46;20042;-73
2021/12/15 00:02:10;;;;;;;9.77;8.05;;;13.50;69.60;;;;;;1080984;46;20542;-73
2021/12/15 00:03:51;;;;;;;9.50;7.82;;;13.50;69.60;;;;;;1080978;39;20847;-73
2021/12/15 00:05:33;;;;;;;10.48;7.70;;;13.50;69.70;;;;;;1081191;46;20034;-73
2021/12/15 00:07:14;;;;;;;10.50;7.90;;;13.50;69.70;;;;;;1080703;46;20041;-73
2021/12/15 00:08:58;;;;;;;10.43;7.10;;;13.50;69.70;;;;;;1081367;46;20030;-73
2021/12/15 00:10:41;;;;;;;9.45;7.70;;;13.50;69.80;;;;;;1081268;46;20034;-73
2021/12/15 00:12:22;;;;;;;10.82;7.32;;;13.50;69.60;;;;;;1080075;54;20042;-72
2021/12/15 00:14:12;;;;;;;12.05;8.07;;;13.50;69.70;;;;;;1081706;39;20546;-73
2021/12/15 00:15:53;;;;;;;8.45;7.55;;;13.50;69.70;;;;;;1081365;47;20142;-73
2021/12/15 00:17:36;;;;;;;10.77;7.53;;;13.50;69.70;;;;;;1081117;39;20551;-73
2021/12/15 00:19:17;;;;;;;9.30;7.53;;;13.50;69.70;;;;;;1081385;47;20582;-73
2021/12/15 00:20:59;;;;;;;11.40;7.50;;;13.50;69.70;;;;;;1081510;46;20134;-73
2021/12/15 00:22:40;;;;;;;10.68;7.57;;;13.50;69.70;;;;;;1081208;46;20050;-73
2021/12/15 00:24:22;;;;;;;9.60;7.22;;;13.50;69.70;;;;;;1081097;47;20828;-73
2021/12/15 00:26:04;;;;;;;10.45;7.65;;;13.60;69.60;;;;;;1081604;47;20045;-74
2021/12/15 00:27:45;;;;;;;10.60;8.30;;;13.50;69.50;;;;;;1081065;47;20046;-73
2021/12/15 00:29:26;;;;;;;12.10;8.73;;;13.50;69.50;;;;;;1081595;47;20117;-73
2021/12/15 00:31:08;;;;;;;9.68;7.25;;;13.50;69.40;;;;;;1081611;46;20027;-73
2021/12/15 00:32:52;;;;;;;8.77;7.57;;;13.50;69.50;;;;;;1081486;46;20038;-73
2021/12/15 00:34:37;;;;;;;8.88;6.90;;;13.50;69.40;;;;;;1081655;39;20427;-73
2021/12/15 00:36:18;;;;;;;9.63;6.68;;;13.60;69.50;;;;;;1081132;46;20041;-71
2021/12/15 00:38:00;;;;;;;9.90;7.10;;;13.60;69.40;;;;;;1081751;39;20459;-71
2021/12/15 00:39:41;;;;;;;8.60;6.63;;;13.50;69.30;;;;;;1081390;47;20046;-70
2021/12/15 00:41:22;;;;;;;9.10;6.70;;;13.50;69.30;;;;;;1080784;47;20065;-72
2021/12/15 00:43:04;;;;;;;7.65;6.50;;;13.50;69.40;;;;;;1081192;46;20668;-73
2021/12/15 00:44:45;;;;;;;7.70;6.28;;;13.50;69.40;;;;;;1081385;47;20038;-73
2021/12/15 00:46:27;;;;;;;10.18;6.85;;;13.60;69.40;;;;;;1080790;46;20034;-71
2021/12/15 00:48:08;;;;;;;8.73;7.05;;;13.50;69.40;;;;;;1081041;46;20086;-73
2021/12/15 00:49:51;;;;;;;8.50;6.78;;;13.60;69.50;;;;;;1081125;46;20041;-72
2021/12/15 00:51:32;;;;;;;8.65;7.07;;;13.60;69.60;;;;;;1080388;47;20653;-73
2021/12/15 00:53:14;;;;;;;8.30;6.82;;;13.60;69.50;;;;;;1081053;47;20065;-74
2021/12/15 00:54:55;;;;;;;9.18;7.22;;;13.60;69.50;;;;;;1081089;47;20034;-73
2021/12/15 00:56:37;;;;;;;9.43;7.00;;;13.50;69.50;;;;;;1080780;46;20642;-73
2021/12/15 00:58:19;;;;;;;9.13;6.43;;;13.60;69.60;;;;;;1081118;47;20038;-73
2021/12/15 01:00:01;;;;;;;9.55;7.28;;;13.60;69.50;;;;;;1081260;47;20034;-74
2021/12/15 01:01:43;;;;;;;9.10;7.00;;;13.60;69.50;;;;;;1081363;46;20034;-73
2021/12/15 01:03:25;;;;;;;8.48;7.10;;;13.60;69.50;;;;;;1081187;47;20081;-74
2021/12/15 01:05:08;;;;;;;8.07;6.95;;;13.60;69.50;;;;;;1081201;46;20094;-74
2021/12/15 01:06:53;;;;;;;9.30;7.07;;;13.60;69.50;;;;;;1080902;47;20034;-73
2021/12/15 01:08:40;;;;;;;7.35;6.38;;;13.60;69.60;;;;;;1081340;47;20034;-73
2021/12/15 01:10:29;;;;;;;8.30;6.60;;;13.60;69.60;;;;;;1081072;47;20038;-73
2021/12/15 01:12:36;;;;;;;6.93;6.03;;;13.60;69.70;;;;;;1080998;47;20038;-73
2021/12/15 01:14:35;;;;;;;7.70;6.32;;;13.60;69.80;;;;;;1080741;47;20594;-73
2021/12/15 01:20:24;;;;;;;7.50;6.68;;;13.60;69.80;;;;;;1081274;47;20594;-73
2021/12/15 01:22:05;;;;;;;10.45;7.35;;;13.60;70.00;;;;;;1080809;47;20031;-72
2021/12/15 01:23:47;;;;;;;10.30;7.57;;;13.60;69.90;;;;;;1081256;47;20062;-73
2021/12/15 01:25:41;;;;;;;9.30;7.10;;;13.60;70.10;;;;;;1081291;47;20557;-73
2021/12/15 01:27:26;;;;;;;9.85;7.32;;;13.60;70.30;;;;;;1080472;47;20106;-73
2021/12/15 01:29:07;;;;;;;10.60;7.88;;;13.60;70.10;;;;;;1081175;47;20824;-73
2021/12/15 01:30:49;;;;;;;9.32;7.95;;;13.50;70.30;;;;;;1081277;47;20039;-73
2021/12/15 01:32:31;;;;;;;9.27;7.63;;;13.50;70.40;;;;;;1080205;39;20451;-73
2021/12/15 01:34:12;;;;;;;11.45;8.40;;;13.50;70.40;;;;;;1080684;47;20027;-73
2021/12/15 01:35:55;;;;;;;9.35;7.38;;;13.50;70.40;;;;;;1080971;47;20566;-74
2021/12/15 01:37:37;;;;;;;9.65;7.70;;;13.50;70.70;;;;;;1080686;54;20069;-73
2021/12/15 01:39:18;;;;;;;9.25;8.13;;;13.50;70.60;;;;;;1081548;46;20042;-73
2021/12/15 01:41:00;;;;;;;9.48;7.13;;;13.50;70.80;;;;;;1081714;39;20312;-73
2021/12/15 01:42:41;;;;;;;10.45;7.60;;;13.50;70.80;;;;;;1081135;47;20035;-73
2021/12/15 01:48:11;;;;;;;9.43;7.57;;;13.50;70.90;;;;;;1081460;46;20578;-74
2021/12/15 01:49:54;;;;;;;8.93;7.07;;;13.50;70.80;;;;;;1081418;46;20044;-73
2021/12/15 01:51:36;;;;;;;10.50;8.10;;;13.50;70.80;;;;;;1081275;46;20042;-72
2021/12/15 01:53:18;;;;;;;11.20;8.15;;;13.50;70.90;;;;;;1081364;46;20039;-73
2021/12/15 01:55:06;;;;;;;12.07;8.80;;;13.50;70.80;;;;;;1081031;46;20043;-73
2021/12/15 01:56:48;;;;;;;9.35;7.05;;;13.50;70.80;;;;;;1080893;47;20591;-73
2021/12/15 01:58:29;;;;;;;10.63;7.68;;;13.50;70.80;;;;;;1081234;46;20039;-73
2021/12/15 02:00:21;;;;;;;9.23;7.72;;;13.50;70.80;;;;;;1081376;39;20483;-73
2021/12/15 02:02:03;;;;;;;12.35;9.05;;;13.50;71.00;;;;;;1081518;39;20506;-73
2021/12/15 02:03:46;;;;;;;11.55;9.10;;;13.50;70.90;;;;;;1081454;46;20065;-73
2021/12/15 02:05:30;;;;;;;15.90;9.80;;;13.50;71.00;;;;;;1081386;46;20137;-73
2021/12/15 02:07:16;;;;;;;11.82;8.75;;;13.50;71.00;;;;;;1080547;46;20035;-73
2021/12/15 02:08:57;;;;;;;11.23;8.30;;;13.50;71.00;;;;;;1081365;46;20034;-73
2021/12/15 02:10:41;;;;;;;11.68;8.95;;;13.40;70.90;;;;;;1081556;46;20034;-73
2021/12/15 02:12:28;;;;;;;11.95;7.80;;;13.40;70.90;;;;;;1081104;39;20346;-73
2021/12/15 02:14:11;;;;;;;12.85;9.02;;;13.40;71.10;;;;;;1081311;47;20041;-73
2021/12/15 02:15:54;;;;;;;11.18;8.52;;;13.40;71.00;;;;;;1081529;46;20658;-73
2021/12/15 02:17:36;;;;;;;10.10;7.95;;;13.40;71.10;;;;;;1081169;47;20045;-73
2021/12/15 02:19:18;;;;;;;12.98;9.07;;;13.40;71.10;;;;;;1081574;46;20065;-74
2021/12/15 02:21:09;;;;;;;10.75;8.38;;;13.30;71.20;;;;;;1081219;46;20038;-73
2021/12/15 02:22:50;;;;;;;10.40;7.78;;;13.30;71.60;;;;;;1081613;47;20035;-73
2021/12/15 02:24:34;;;;;;;9.95;7.78;;;13.30;71.50;;;;;;1081659;46;20161;-73
2021/12/15 02:26:20;;;;;;;11.13;8.13;;;13.30;71.60;;;;;;1081274;47;20045;-73
2021/12/15 02:28:03;;;;;;;12.82;8.20;;;13.30;71.70;;;;;;1081424;46;20068;-74
2021/12/15 02:29:47;;;;;;;11.77;8.32;;;13.30;71.80;;;;;;1081708;47;20031;-73
2021/12/15 02:31:40;;;;;;;10.07;8.07;;;13.30;71.90;;;;;;1081685;46;20034;-73
2021/12/15 02:37:24;;;;;;;9.35;7.28;;;13.30;71.90;;;;;;1080936;47;20038;-73
2021/12/15 02:39:08;;;;;;;9.82;7.75;;;13.30;72.10;;;;;;1081246;46;20041;-73
2021/12/15 02:40:50;;;;;;;13.18;8.30;;;13.30;72.50;;;;;;1081076;46;20035;-73
2021/12/15 02:42:37;;;;;;;11.43;9.00;;;13.30;72.30;;;;;;1080838;39;20533;-73
2021/12/15 02:44:20;;;;;;;12.50;9.05;;;13.30;72.30;;;;;;1081386;46;20061;-74
2021/12/15 02:46:04;;;;;;;12.07;9.18;;;13.30;72.20;;;;;;1081391;46;20042;-73
2021/12/15 02:47:46;;;;;;;11.52;8.13;;;13.30;72.20;;;;;;1080872;46;20053;-73
2021/12/15 02:49:29;;;;;;;11.02;7.97;;;13.30;72.40;;;;;;1081044;46;20574;-74
2021/12/15 02:51:11;;;;;;;9.25;7.30;;;13.30;72.40;;;;;;1080964;46;20044;-73
2021/12/15 02:52:52;;;;;;;11.18;8.38;;;13.20;72.30;;;;;;1081452;46;20031;-74
2021/12/15 02:54:35;;;;;;;10.38;8.48;;;13.30;72.30;;;;;;1081324;47;20065;-73
2021/12/15 02:56:16;;;;;;;10.10;8.30;;;13.30;72.40;;;;;;1081402;46;20125;-74
2021/12/15 02:57:58;;;;;;;12.93;9.38;;;13.20;72.30;;;;;;1081518;46;20499;-73
2021/12/15 02:59:58;;;;;;;10.88;8.52;;;13.20;72.20;;;;;;1081538;46;20034;-73
2021/12/15 03:01:59;;;;;;;11.15;8.70;;;13.20;72.20;;;;;;1081247;46;20602;-73
2021/12/15 03:05:37;;;;;;;10.95;8.63;;;13.30;72.40;;;;;;1081313;46;20034;-73
2021/12/15 03:15:15;;;;;;;11.20;8.60;;;13.20;72.30;;;;;;1080842;47;20034;-73
2021/12/15 03:15:34;;;;;;;9.98;6.90;;;13.20;72.60;;;;;;1081767;39;20398;-73
2021/12/15 03:17:15;;;;;;;10.05;7.43;;;13.20;72.60;;;;;;1081045;46;20034;-73
2021/12/15 03:18:58;;;;;;;8.70;7.10;;;13.20;72.50;;;;;;1081709;39;20450;-73
2021/12/15 03:20:49;;;;;;;12.30;8.75;;;13.10;72.60;;;;;;1081550;46;20538;-73
2021/12/15 03:22:30;;;;;;;12.98;9.45;;;13.20;72.70;;;;;;1081314;46;20030;-73
2021/12/15 03:24:18;;;;;;;12.07;9.13;;;13.10;72.60;;;;;;1081250;46;20689;-73
2021/12/15 03:26:00;;;;;;;12.18;8.68;;;13.10;72.70;;;;;;1081769;46;20046;-74
2021/12/15 03:34:11;;;;;;;13.25;9.10;;;13.20;72.70;;;;;;1081077;47;20071;-73
2021/12/15 03:36:06;;;;;;;11.00;7.97;;;13.10;72.60;;;;;;1081299;47;20058;-73
2021/12/15 03:37:54;;;;;;;11.60;8.13;;;13.10;72.60;;;;;;1081071;47;20034;-73
2021/12/15 03:39:42;;;;;;;11.95;8.73;;;13.10;72.60;;;;;;1081406;46;20150;-73
2021/12/15 03:41:23;;;;;;;12.25;9.65;;;13.10;72.70;;;;;;1081267;54;20045;-73
2021/12/15 03:43:11;;;;;;;11.15;8.43;;;13.10;72.80;;;;;;1081262;47;20034;-73
2021/12/15 03:44:53;;;;;;;10.70;8.50;;;13.10;73.00;;;;;;1081508;46;20145;-73
2021/12/15 03:46:35;;;;;;;11.48;8.20;;;13.10;72.80;;;;;;1080960;47;20034;-73
2021/12/15 03:48:22;;;;;;;13.88;8.82;;;13.00;72.80;;;;;;1081382;46;20035;-73
2021/12/15 03:50:06;;;;;;;11.32;8.05;;;13.00;73.00;;;;;;1080749;47;20058;-73
2021/12/15 03:51:47;;;;;;;12.50;9.02;;;13.00;73.00;;;;;;1080805;46;20130;-73
2021/12/15 03:53:29;;;;;;;11.13;8.25;;;13.00;73.00;;;;;;1080999;47;20034;-73
2021/12/15 03:55:11;;;;;;;10.15;7.65;;;13.00;73.20;;;;;;1081290;46;20046;-73
2021/12/15 03:56:54;;;;;;;11.73;8.68;;;13.00;73.40;;;;;;1080754;46;20065;-74
2021/12/15 03:58:35;;;;;;;9.52;7.50;;;13.00;73.40;;;;;;1081061;47;20178;-73
2021/12/15 04:00:18;;;;;;;11.57;8.88;;;13.00;73.30;;;;;;1081279;47;20042;-73
2021/12/15 04:01:59;;;;;;;10.38;8.13;;;12.90;73.30;;;;;;1080780;46;20038;-73
2021/12/15 04:03:44;;;;;;;9.82;8.00;;;13.00;73.60;;;;;;1081079;46;20129;-73
2021/12/15 04:05:26;;;;;;;11.20;8.40;;;13.00;73.60;;;;;;1081575;39;20434;-73
2021/12/15 04:07:08;;;;;;;11.85;8.25;;;13.00;73.40;;;;;;1080605;47;20062;-73
2021/12/15 04:08:49;;;;;;;11.00;8.13;;;13.00;73.60;;;;;;1081407;46;20038;-73
2021/12/15 04:10:31;;;;;;;12.68;9.13;;;13.00;73.60;;;;;;1081503;46;20038;-73
2021/12/15 04:12:13;;;;;;;10.88;7.65;;;13.00;73.60;;;;;;1081338;46;20034;-73
2021/12/15 04:14:00;;;;;;;10.43;8.73;;;13.00;73.70;;;;;;1081173;46;20082;-73
2021/12/15 04:15:46;;;;;;;10.55;8.13;;;13.00;73.60;;;;;;1081488;47;20129;-74
2021/12/15 04:17:30;;;;;;;12.25;8.10;;;13.00;73.60;;;;;;1081114;46;20042;-73
2021/12/15 04:19:16;;;;;;;12.48;8.02;;;13.00;73.60;;;;;;1081554;46;20038;-73
2021/12/15 04:20:57;;;;;;;9.57;8.23;;;13.00;73.80;;;;;;1081326;39;20433;-73
2021/12/15 04:22:41;;;;;;;10.35;8.10;;;12.90;73.60;;;;;;1081235;47;20046;-73
2021/12/15 04:24:25;;;;;;;12.52;8.65;;;13.00;73.70;;;;;;1081341;46;20157;-73
2021/12/15 04:26:06;;;;;;;9.30;6.88;;;13.00;73.60;;;;;;1081409;46;20041;-73
2021/12/15 04:28:13;;;;;;;8.50;7.60;;;12.90;73.50;;;;;;1080866;47;20056;-73
2021/12/15 04:29:54;;;;;;;9.95;8.55;;;13.00;74.10;;;;;;1080856;47;20069;-74
2021/12/15 04:31:40;;;;;;;11.38;7.90;;;13.00;73.60;;;;;;1080869;46;20034;-73
2021/12/15 04:33:30;;;;;;;10.10;7.65;;;13.00;73.80;;;;;;1080576;47;20157;-74
2021/12/15 04:35:13;;;;;;;10.30;7.57;;;13.00;73.70;;;;;;1081154;46;20175;-73
2021/12/15 04:36:55;;;;;;;10.43;8.23;;;13.00;73.70;;;;;;1080790;46;20069;-73
2021/12/15 04:38:38;;;;;;;8.43;7.13;;;12.90;74.00;;;;;;1080711;46;20884;-73
2021/12/15 04:40:22;;;;;;;8.55;6.75;;;12.90;74.10;;;;;;1081708;39;20455;-73
2021/12/15 04:42:05;;;;;;;12.80;8.57;;;13.00;74.10;;;;;;1081380;39;20455;-73
2021/12/15 04:43:56;;;;;;;10.55;8.23;;;13.00;73.90;;;;;;1081340;39;20448;-73
2021/12/15 04:45:38;;;;;;;8.90;7.75;;;12.90;74.00;;;;;;1081328;47;20495;-73
2021/12/15 04:47:19;;;;;;;9.15;7.55;;;12.90;73.80;;;;;;1080585;47;20777;-73
2021/12/15 04:49:02;;;;;;;8.95;7.57;;;13.00;73.90;;;;;;1081462;47;20061;-73
2021/12/15 04:50:44;;;;;;;8.23;6.63;;;12.90;74.10;;;;;;1081826;39;20386;-73
2021/12/15 04:52:32;;;;;;;9.65;7.32;;;12.90;74.10;;;;;;1081327;46;20034;-73
2021/12/15 04:54:15;;;;;;;9.48;6.88;;;12.90;74.20;;;;;;1081097;47;20570;-73
2021/12/15 04:55:56;;;;;;;8.52;7.00;;;13.00;74.20;;;;;;1081212;46;20042;-73
2021/12/15 04:57:38;;;;;;;8.25;6.78;;;13.00;74.10;;;;;;1081362;47;20154;-73
2021/12/15 04:59:20;;;;;;;12.10;7.93;;;13.00;74.30;;;;;;1081143;47;20030;-74
2021/12/15 05:01:05;;;;;;;9.43;7.28;;;12.90;74.00;;;;;;1080614;47;20038;-73
2021/12/15 05:02:47;;;;;;;10.52;6.32;;;13.00;74.00;;;;;;1081255;39;20520;-72
2021/12/15 05:04:28;;;;;;;9.40;7.15;;;12.90;73.80;;;;;;1081482;39;20433;-73
2021/12/15 05:06:10;;;;;;;8.48;7.43;;;12.90;73.90;;;;;;1081193;47;20559;-73
2021/12/15 05:07:52;;;;;;;8.43;6.85;;;12.90;73.80;;;;;;1081150;47;20558;-73
2021/12/15 05:09:33;;;;;;;6.63;6.00;;;13.00;73.90;;;;;;1081269;47;20061;-73
2021/12/15 05:11:14;;;;;;;8.60;6.13;;;12.90;73.90;;;;;;1081040;47;20034;-73
2021/12/15 05:12:57;;;;;;;9.10;6.05;;;12.90;74.00;;;;;;1081294;46;20045;-73
2021/12/15 05:14:38;;;;;;;6.28;5.47;;;12.90;74.20;;;;;;1081065;46;20601;-73
2021/12/15 05:16:20;;;;;;;8.52;7.15;;;12.90;74.10;;;;;;1081253;39;20625;-74
2021/12/15 05:18:01;;;;;;;8.00;6.10;;;12.90;74.20;;;;;;1081099;46;20060;-74
2021/12/15 05:19:45;;;;;;;8.55;6.72;;;12.90;74.20;;;;;;1080941;47;20046;-73
2021/12/15 05:21:28;;;;;;;7.15;5.93;;;12.90;74.20;;;;;;1081169;46;20034;-73
2021/12/15 05:23:11;;;;;;;9.18;7.38;;;12.90;74.30;;;;;;1081101;47;20101;-73
2021/12/15 05:24:52;;;;;;;7.78;6.40;;;12.90;74.30;;;;;;1080983;47;20149;-73
2021/12/15 05:26:34;;;;;;;6.55;5.85;;;12.90;74.30;;;;;;1080259;47;20103;-74
2021/12/15 05:28:15;;;;;;;7.05;6.25;;;12.90;74.20;;;;;;1080942;47;20034;-73
2021/12/15 05:29:57;;;;;;;7.07;6.05;;;13.00;74.30;;;;;;1081233;47;20065;-73
2021/12/15 05:31:39;;;;;;;8.02;6.50;;;13.00;74.40;;;;;;1081218;47;20130;-73
2021/12/15 05:33:21;;;;;;;7.88;6.13;;;13.00;74.40;;;;;;1081391;47;20046;-73
2021/12/15 05:35:03;;;;;;;8.80;6.50;;;12.90;74.40;;;;;;1081143;47;20054;-74
2021/12/15 05:36:45;;;;;;;8.30;6.97;;;12.90;74.20;;;;;;1080108;47;20590;-73
2021/12/15 05:38:26;;;;;;;7.80;6.90;;;13.00;74.20;;;;;;1081354;47;20045;-73
2021/12/15 05:40:08;;;;;;;8.27;7.22;;;13.00;74.30;;;;;;1081508;47;20042;-73
2021/12/15 05:41:51;;;;;;;8.23;6.80;;;13.00;74.30;;;;;;1081266;47;20058;-73
2021/12/15 05:43:32;;;;;;;9.00;7.50;;;12.90;74.40;;;;;;1081722;47;20034;-73
2021/12/15 05:45:13;;;;;;;10.68;8.18;;;13.00;74.30;;;;;;1081795;39;20525;-75
2021/12/15 05:46:57;;;;;;;11.00;8.82;;;12.90;74.40;;;;;;1080745;47;20592;-74
2021/12/15 05:48:38;;;;;;;10.60;7.68;;;13.00;74.50;;;;;;1081488;47;20045;-74
2021/12/15 05:50:20;;;;;;;10.15;7.95;;;12.90;74.40;;;;;;1081312;47;20571;-73
2021/12/15 05:52:02;;;;;;;10.57;8.95;;;13.00;74.50;;;;;;1081009;47;20118;-74
2021/12/15 05:53:43;;;;;;;11.65;9.48;;;13.00;74.40;;;;;;1081296;47;20585;-74
2021/12/15 05:55:25;;;;;;;10.82;8.75;;;13.00;74.40;;;;;;1081038;47;20039;-73
2021/12/15 05:57:06;;;;;;;9.05;8.05;;;12.90;74.40;;;;;;1080505;47;20035;-74
2021/12/15 05:58:48;;;;;;;11.93;9.55;;;13.00;74.50;;;;;;1081280;47;20042;-73
2021/12/15 06:00:32;;;;;;;14.52;11.10;;;12.90;74.40;;;;;;1080874;47;20050;-73
2021/12/15 06:02:14;;;;;;;12.82;9.68;;;13.00;74.60;;;;;;1080656;47;20531;-73
2021/12/15 06:03:56;;;;;;;9.10;7.68;;;12.90;74.50;;;;;;1080968;47;20082;-74
2021/12/15 06:05:38;;;;;;;10.82;9.18;;;12.90;74.60;;;;;;1080843;47;20061;-71
2021/12/15 06:07:19;;;;;;;11.57;9.55;;;12.90;74.50;;;;;;1080705;47;20038;-71
2021/12/15 06:09:03;;;;;;;13.40;10.35;;;12.90;74.50;;;;;;1081212;47;20038;-74
2021/12/15 06:10:44;;;;;;;13.73;10.38;;;12.90;74.60;;;;;;1080170;47;20141;-74
2021/12/15 06:12:26;;;;;;;12.70;9.80;;;12.90;74.50;;;;;;1080379;47;20034;-74
2021/12/15 06:14:07;;;;;;;13.70;10.50;;;12.90;74.60;;;;;;1080670;47;20559;-74
2021/12/15 06:15:49;;;;;;;12.57;9.98;;;13.00;74.60;;;;;;1080553;47;20062;-74
2021/12/15 06:17:31;;;;;;;11.73;9.32;;;12.90;74.70;;;;;;1080636;47;20059;-74
2021/12/15 06:19:12;;;;;;;11.70;9.25;;;12.90;74.60;;;;;;1080786;47;20060;-74
2021/12/15 06:20:54;;;;;;;11.57;9.18;;;12.90;74.70;;;;;;1080453;47;20035;-74
2021/12/15 06:22:37;;;;;;;12.27;9.57;;;13.00;74.90;;;;;;1080978;47;20034;-74
2021/12/15 06:24:18;;;;;;;11.65;9.70;;;12.90;74.70;;;;;;1081367;46;20069;-74
2021/12/15 06:26:03;;;;;;;13.20;9.88;;;13.00;74.80;;;;;;1081299;54;20046;-72
2021/12/15 06:27:44;;;;;;;12.90;9.80;;;13.00;74.80;;;;;;1081218;47;20040;-72
2021/12/15 06:29:25;;;;;;;15.50;10.98;;;13.00;74.70;;;;;;1081463;46;20057;-72
2021/12/15 06:31:10;;;;;;;11.70;9.30;;;13.00;74.80;;;;;;1081632;46;20034;-72
2021/12/15 06:32:51;;;;;;;12.93;9.68;;;13.00;74.90;;;;;;1081514;47;20066;-71
2021/12/15 06:34:32;;;;;;;10.90;9.48;;;13.00;74.70;;;;;;1081510;47;20073;-72
2021/12/15 06:36:20;;;;;;;11.20;8.88;;;13.00;74.70;;;;;;1081678;46;20038;-72
2021/12/15 06:38:03;;;;;;;12.57;9.93;;;13.00;74.70;;;;;;1081434;46;20103;-72
2021/12/15 06:39:45;;;;;;;13.75;10.45;;;13.00;74.70;;;;;;1081716;46;20635;-72
2021/12/15 06:41:26;;;;;;;14.13;10.35;;;13.00;74.60;;;;;;1081469;46;20041;-72
2021/12/15 06:43:08;;;;;;;11.27;9.25;;;13.00;74.60;;;;;;1081568;46;20614;-71
2021/12/15 06:44:49;;;;;;;11.93;9.55;;;13.00;74.60;;;;;;1081212;46;20098;-72
2021/12/15 06:58:17;;;;;;;10.77;8.00;;;13.00;74.50;;;;;;1081381;46;20555;-72
2021/12/15 07:00:00;;;;;;;10.35;8.02;;;13.00;74.50;;;;;;1080926;46;20074;-71
2021/12/15 07:01:41;;;;;;;10.52;8.40;;;13.00;74.50;;;;;;1081094;47;20149;-72
2021/12/15 07:03:24;;;;;;;10.32;8.55;;;13.00;74.70;;;;;;1081511;39;20459;-72
2021/12/15 07:05:09;;;;;;;11.40;8.27;;;13.00;74.90;;;;;;1081348;46;20046;-72
2021/12/15 07:06:52;;;;;;;12.68;9.52;;;13.00;75.10;;;;;;1080653;46;20034;-72
2021/12/15 07:08:35;;;;;;;10.18;8.07;;;13.00;75.00;;;;;;1081642;46;20027;-72
2021/12/15 07:10:21;;;;;;;9.90;7.95;;;13.00;74.80;;;;;;1081846;46;20058;-72
2021/12/15 07:12:04;;;;;;;9.85;8.60;;;13.00;74.90;;;;;;1081382;46;20144;-72
2021/12/15 07:13:46;;;;;;;10.05;8.00;;;13.00;74.90;;;;;;1081864;46;20034;-74
2021/12/15 07:15:28;;;;;;;9.52;7.85;;;13.00;74.80;;;;;;1081397;46;20035;-72
2021/12/15 07:17:18;;;;;;;10.70;7.45;;;13.00;74.90;;;;;;1080113;47;20459;-73
2021/12/15 07:19:17;;;;;;;9.25;7.68;;;13.00;74.80;;;;;;1081232;39;20434;-73
2021/12/15 07:21:05;;;;;;;8.48;7.18;;;13.00;74.80;;;;;;1080942;46;20554;-74
2021/12/15 07:22:46;;;;;;;9.63;7.82;;;13.00;74.80;;;;;;1080784;47;20065;-73
2021/12/15 07:24:29;;;;;;;9.25;8.23;;;13.00;74.80;;;;;;1081616;39;20432;-73
2021/12/15 07:26:11;;;;;;;11.77;8.95;;;13.00;74.80;;;;;;1081187;39;20495;-73
2021/12/15 07:27:53;;;;;;;9.57;7.78;;;13.00;74.80;;;;;;1081500;46;20078;-73
2021/12/15 07:29:35;;;;;;;9.15;7.30;;;13.00;74.80;;;;;;1080727;46;20036;-73
2021/12/15 07:31:16;;;;;;;12.00;8.90;;;13.00;75.00;;;;;;1081183;46;20048;-72
2021/12/15 07:32:59;;;;;;;8.80;7.75;;;13.00;75.10;;;;;;1081386;46;20039;-73
2021/12/15 07:34:40;;;;;;;10.35;7.50;;;13.00;75.20;;;;;;1081252;46;20046;-73
2021/12/15 07:36:21;;;;;;;10.35;8.40;;;13.00;75.10;;;;;;1080840;46;20034;-73
2021/12/15 07:38:04;;;;;;;8.75;7.40;;;13.00;75.00;;;;;;1080433;47;20086;-73
2021/12/15 07:39:54;;;;;;;9.85;8.50;;;13.00;75.00;;;;;;1080120;46;20629;-73
2021/12/15 07:41:42;;;;;;;10.30;8.27;;;13.00;75.00;;;;;;1081344;47;20038;-74
2021/12/15 07:43:26;;;;;;;10.40;8.80;;;13.00;75.20;;;;;;1081162;47;20034;-74
2021/12/15 07:45:08;;;;;;;10.48;8.65;;;13.00;75.20;;;;;;1081385;47;20057;-73
2021/12/15 07:46:52;;;;;;;10.82;7.97;;;13.00;75.10;;;;;;1080826;46;20065;-75
2021/12/15 07:48:34;;;;;;;10.10;8.48;;;13.10;75.20;;;;;;1080608;47;20114;-74
2021/12/15 07:50:17;;;;;;;10.05;8.05;;;13.10;75.30;;;;;;1081175;47;20038;-73
2021/12/15 07:52:01;;;;;;;9.15;7.20;;;13.10;75.30;;;;;;1080867;46;20574;-73
2021/12/15 07:53:43;;;;;;;8.73;7.07;;;13.10;75.30;;;;;;1081484;39;20220;-76
2021/12/15 07:55:25;;;;;;;9.85;8.27;;;13.10;75.30;;;;;;1080663;46;20126;-73
2021/12/15 07:57:16;;;;;;;8.98;7.53;;;13.10;75.30;;;;;;1080481;47;20574;-73
2021/12/15 07:58:57;;;;;;;9.40;7.38;;;13.10;75.40;;;;;;1080633;46;20149;-74
2021/12/15 08:00:41;;;;;;;9.18;7.50;;;13.10;75.30;;;;;;1080558;47;20600;-74
2021/12/15 08:02:23;;;;;;;8.65;7.03;;;13.10;75.20;;;;;;1080528;47;20061;-74
2021/12/15 08:04:05;;;;;;;8.40;7.32;;;13.10;75.10;;;;;;1080916;47;20034;-73
2021/12/15 08:05:49;;;;;;;9.05;7.45;;;13.10;75.10;;;;;;1081381;39;20546;-74
2021/12/15 08:07:30;;;;;;;8.05;7.22;;;13.10;75.10;;;;;;1079987;47;20042;-73
2021/12/15 08:09:12;;;;;;;8.90;7.85;;;13.10;75.10;;;;;;1080978;46;20042;-74
2021/12/15 08:10:56;;;;;;;7.05;6.15;;;13.10;75.10;;;;;;1080672;47;20057;-75
2021/12/15 08:12:40;;;;;;;8.50;6.80;;;13.10;75.20;;;;;;1080411;46;20166;-74
2021/12/15 08:14:21;;;;;;;7.65;6.85;;;13.10;75.20;;;;;;1080913;46;20034;-74
2021/12/15 08:16:03;;;;;;;11.85;8.20;;;13.20;75.20;;;;;;1080811;46;20065;-73
2021/12/15 08:17:51;;;;;;;9.30;6.85;;;13.20;75.10;;;;;;1080282;46;20038;-74
2021/12/15 08:19:32;;;;;;;9.10;6.88;;;13.20;75.10;;;;;;1080904;46;20034;-74
2021/12/15 08:21:13;;;;;;;10.52;8.55;;;13.20;75.00;;;;;;1080538;47;20133;-74
2021/12/15 08:22:55;;;;;;;9.63;8.38;;;13.20;75.10;;;;;;1080854;47;20040;-74
2021/12/15 08:24:37;;;;;;;10.32;8.40;;;13.20;75.00;;;;;;1080896;47;20034;-73
2021/12/15 08:26:18;;;;;;;9.10;7.97;;;13.20;74.90;;;;;;1080626;46;20057;-73
2021/12/15 08:27:59;;;;;;;8.70;7.63;;;13.20;74.90;;;;;;1080150;46;20034;-74
